Colesburg, Iowa
Current Conditions -  °F | °C
As of 5:55 AM on Monday 22 Dec 2014 (Local Time) from KPDC Reporting Station
Haze Haze  
Wind Chill: 29°   Ceiling: 1700
Heat Index: 35°   Visibility: 5mi
Dew Point: 32°   Wind: 8mph
Humidity: 89%   Direction: 100°E
Pressure: 29.8"   Gusts: NA
Location:  42.64°N, 91.2°W
Report Text: KPDC 221155Z AUTO 10007KT 5SM BR SCT009 OVC017 02/00 A2980 RMK AO2 T00170000 10025 20017
Loading
Personal Weather Stations






























Interactive Weather Map New forecast layout! Learn more

10-Day Weather Forecast

Advertisements
Track Severe Weather on mobile